sensor_id;sensor_type;location;lat;lon;timestamp;pressure;altitude;pressure_sealevel;temperature;humidity
12666;BME280;58531;59.050;17.416;2022-12-18T00:00:39;101594.22;;;-2.23;100.00
12666;BME280;58531;59.050;17.416;2022-12-18T00:03:07;101599.81;;;-2.24;100.00
12666;BME280;58531;59.050;17.416;2022-12-18T00:05:34;101591.97;;;-2.24;100.00
12666;BME280;58531;59.050;17.416;2022-12-18T00:08:01;101593.78;;;-2.25;100.00
12666;BME280;58531;59.050;17.416;2022-12-18T00:10:29;101587.03;;;-2.26;100.00
12666;BME280;58531;59.050;17.416;2022-12-18T00:12:56;101574.41;;;-2.24;100.00
12666;BME280;58531;59.050;17.416;2022-12-18T00:15:23;101578.09;;;-2.25;100.00
12666;BME280;58531;59.050;17.416;2022-12-18T00:17:50;101580.41;;;-2.23;100.00
12666;BME280;58531;59.050;17.416;2022-12-18T00:20:16;101583.03;;;-2.23;100.00
12666;BME280;58531;59.050;17.416;2022-12-18T00:22:50;101582.69;;;-2.22;100.00
12666;BME280;58531;59.050;17.416;2022-12-18T00:25:17;101580.41;;;-2.23;100.00
12666;BME280;58531;59.050;17.416;2022-12-18T00:27:45;101580.41;;;-2.23;100.00
12666;BME280;58531;59.050;17.416;2022-12-18T00:30:12;101571.56;;;-2.19;100.00
12666;BME280;58531;59.050;17.416;2022-12-18T00:32:39;101572.66;;;-2.20;100.00
12666;BME280;58531;59.050;17.416;2022-12-18T00:35:07;101565.91;;;-2.21;100.00
12666;BME280;58531;59.050;17.416;2022-12-18T00:37:33;101567.88;;;-2.18;100.00
12666;BME280;58531;59.050;17.416;2022-12-18T00:40:00;101570.03;;;-2.20;100.00
12666;BME280;58531;59.050;17.416;2022-12-18T00:42:27;101558.94;;;-2.17;100.00
12666;BME280;58531;59.050;17.416;2022-12-18T00:45:13;101566.03;;;-2.17;100.00
12666;BME280;58531;59.050;17.416;2022-12-18T00:47:40;101569.41;;;-2.17;100.00
12666;BME280;58531;59.050;17.416;2022-12-18T00:50:08;101569.41;;;-2.17;100.00
12666;BME280;58531;59.050;17.416;2022-12-18T00:52:35;101565.69;;;-2.16;100.00
12666;BME280;58531;59.050;17.416;2022-12-18T00:55:06;101567.22;;;-2.15;100.00
12666;BME280;58531;59.050;17.416;2022-12-18T00:57:33;101568.31;;;-2.16;100.00
12666;BME280;58531;59.050;17.416;2022-12-18T01:00:00;101550.00;;;-2.16;100.00
12666;BME280;58531;59.050;17.416;2022-12-18T01:02:28;101553.03;;;-2.14;100.00
12666;BME280;58531;59.050;17.416;2022-12-18T01:04:54;101551.66;;;-2.11;100.00
12666;BME280;58531;59.050;17.416;2022-12-18T01:07:21;101553.16;;;-2.10;100.00
12666;BME280;58531;59.050;17.416;2022-12-18T01:09:48;101558.06;;;-2.09;100.00
12666;BME280;58531;59.050;17.416;2022-12-18T01:12:15;101561.03;;;-2.10;100.00
12666;BME280;58531;59.050;17.416;2022-12-18T01:14:41;101568.09;;;-2.11;100.00
12666;BME280;58531;59.050;17.416;2022-12-18T01:17:08;101570.06;;;-2.08;100.00
12666;BME280;58531;59.050;17.416;2022-12-18T01:19:36;101549.78;;;-2.11;100.00
12666;BME280;58531;59.050;17.416;2022-12-18T01:22:03;101551.31;;;-2.10;100.00
12666;BME280;58531;59.050;17.416;2022-12-18T01:24:30;101552.38;;;-2.11;100.00
12666;BME280;58531;59.050;17.416;2022-12-18T01:26:56;101555.13;;;-2.07;100.00
12666;BME280;58531;59.050;17.416;2022-12-18T01:29:23;101548.81;;;-2.06;100.00
12666;BME280;58531;59.050;17.416;2022-12-18T01:31:50;101549.56;;;-2.06;100.00
12666;BME280;58531;59.050;17.416;2022-12-18T01:34:17;101547.72;;;-2.05;100.00
12666;BME280;58531;59.050;17.416;2022-12-18T01:36:45;101556.66;;;-2.06;100.00
12666;BME280;58531;59.050;17.416;2022-12-18T01:39:13;101558.59;;;-2.03;100.00
12666;BME280;58531;59.050;17.416;2022-12-18T01:41:40;101558.50;;;-2.07;100.00
12666;BME280;58531;59.050;17.416;2022-12-18T01:44:51;101561.56;;;-2.05;100.00
12666;BME280;58531;59.050;17.416;2022-12-18T01:47:22;101561.66;;;-2.01;100.00
12666;BME280;58531;59.050;17.416;2022-12-18T01:49:50;101558.59;;;-2.03;100.00
12666;BME280;58531;59.050;17.416;2022-12-18T01:52:19;101558.94;;;-2.05;100.00
12666;BME280;58531;59.050;17.416;2022-12-18T01:54:47;101550.00;;;-2.04;100.00
12666;BME280;58531;59.050;17.416;2022-12-18T01:57:15;101554.16;;;-2.03;100.00
12666;BME280;58531;59.050;17.416;2022-12-18T01:59:43;101562.75;;;-2.02;100.00
12666;BME280;58531;59.050;17.416;2022-12-18T02:02:11;101564.16;;;-2.05;100.00
12666;BME280;58531;59.050;17.416;2022-12-18T02:04:42;101562.22;;;-2.08;100.00
12666;BME280;58531;59.050;17.416;2022-12-18T02:07:14;101566.69;;;-2.08;100.00
12666;BME280;58531;59.050;17.416;2022-12-18T02:09:47;101559.28;;;-2.06;100.00
12666;BME280;58531;59.050;17.416;2022-12-18T02:12:18;101553.91;;;-2.10;100.00
12666;BME280;58531;59.050;17.416;2022-12-18T02:14:52;101555.44;;;-2.09;100.00
12666;BME280;58531;59.050;17.416;2022-12-18T02:17:29;101544.97;;;-2.09;100.00
12666;BME280;58531;59.050;17.416;2022-12-18T02:20:07;101539.09;;;-2.06;100.00
12666;BME280;58531;59.050;17.416;2022-12-18T02:22:44;101534.06;;;-2.11;100.00
12666;BME280;58531;59.050;17.416;2022-12-18T02:25:26;101531.69;;;-2.16;100.00
12666;BME280;58531;59.050;17.416;2022-12-18T02:28:02;101538.00;;;-2.17;100.00
12666;BME280;58531;59.050;17.416;2022-12-18T02:30:32;101547.38;;;-2.16;100.00
12666;BME280;58531;59.050;17.416;2022-12-18T02:33:04;101544.75;;;-2.16;100.00
12666;BME280;58531;59.050;17.416;2022-12-18T02:35:31;101547.81;;;-2.14;100.00
12666;BME280;58531;59.050;17.416;2022-12-18T02:37:59;101554.13;;;-2.15;100.00
12666;BME280;58531;59.050;17.416;2022-12-18T02:40:27;101549.25;;;-2.16;100.00
12666;BME280;58531;59.050;17.416;2022-12-18T02:42:54;101555.56;;;-2.17;100.00
12666;BME280;58531;59.050;17.416;2022-12-18T02:45:22;101558.63;;;-2.15;100.00
12666;BME280;58531;59.050;17.416;2022-12-18T02:47:49;101550.34;;;-2.17;100.00
12666;BME280;58531;59.050;17.416;2022-12-18T02:50:22;101556.97;;;-2.20;100.00
12666;BME280;58531;59.050;17.416;2022-12-18T02:53:00;101554.34;;;-2.20;100.00
12666;BME280;58531;59.050;17.416;2022-12-18T02:55:38;101551.28;;;-2.22;100.00
12666;BME280;58531;59.050;17.416;2022-12-18T02:58:15;101537.13;;;-2.21;100.00
12666;BME280;58531;59.050;17.416;2022-12-18T03:00:47;101539.31;;;-2.23;100.00
12666;BME280;58531;59.050;17.416;2022-12-18T03:03:21;101528.84;;;-2.23;100.00
12666;BME280;58531;59.050;17.416;2022-12-18T03:05:53;101528.84;;;-2.23;100.00
12666;BME280;58531;59.050;17.416;2022-12-18T03:08:23;101526.22;;;-2.23;100.00
12666;BME280;58531;59.050;17.416;2022-12-18T03:10:55;101533.19;;;-2.27;100.00
12666;BME280;58531;59.050;17.416;2022-12-18T03:13:27;101524.91;;;-2.29;100.00
12666;BME280;58531;59.050;17.416;2022-12-18T03:15:59;101529.72;;;-2.31;100.00
12666;BME280;58531;59.050;17.416;2022-12-18T03:18:30;101533.88;;;-2.30;100.00
12666;BME280;58531;59.050;17.416;2022-12-18T03:21:02;101527.44;;;-2.32;100.00
12666;BME280;58531;59.050;17.416;2022-12-18T03:23:34;101520.34;;;-2.32;100.00
12666;BME280;58531;59.050;17.416;2022-12-18T03:26:06;101525.25;;;-2.30;100.00
12666;BME280;58531;59.050;17.416;2022-12-18T03:28:36;101514.25;;;-2.35;100.00
12666;BME280;58531;59.050;17.416;2022-12-18T03:31:09;101514.69;;;-2.33;100.00
12666;BME280;58531;59.050;17.416;2022-12-18T03:33:39;101516.22;;;-2.33;100.00
12666;BME280;58531;59.050;17.416;2022-12-18T03:36:08;101517.63;;;-2.35;100.00
12666;BME280;58531;59.050;17.416;2022-12-18T03:38:35;101509.31;;;-2.37;100.00
12666;BME280;58531;59.050;17.416;2022-12-18T03:41:07;101512.59;;;-2.40;100.00
12666;BME280;58531;59.050;17.416;2022-12-18T03:43:44;101506.19;;;-2.42;100.00
12666;BME280;58531;59.050;17.416;2022-12-18T03:46:23;101527.41;;;-2.44;100.00
12666;BME280;58531;59.050;17.416;2022-12-18T03:48:54;101521.44;;;-2.44;100.00
12666;BME280;58531;59.050;17.416;2022-12-18T03:51:25;101527.09;;;-2.42;100.00
12666;BME280;58531;59.050;17.416;2022-12-18T03:53:57;101510.63;;;-2.43;100.00
12666;BME280;58531;59.050;17.416;2022-12-18T03:56:28;101506.19;;;-2.42;100.00
12666;BME280;58531;59.050;17.416;2022-12-18T03:58:57;101512.06;;;-2.45;100.00
12666;BME280;58531;59.050;17.416;2022-12-18T04:01:30;101505.31;;;-2.46;100.00
12666;BME280;58531;59.050;17.416;2022-12-18T04:03:59;101508.22;;;-2.48;100.00
12666;BME280;58531;59.050;17.416;2022-12-18T04:06:27;101509.00;;;-2.47;100.00
12666;BME280;58531;59.050;17.416;2022-12-18T04:08:56;101504.84;;;-2.48;100.00
12666;BME280;58531;59.050;17.416;2022-12-18T04:11:24;101502.56;;;-2.50;100.00
12666;BME280;58531;59.050;17.416;2022-12-18T04:13:55;101495.06;;;-2.51;100.00
12666;BME280;58531;59.050;17.416;2022-12-18T04:16:22;101505.50;;;-2.51;100.00
12666;BME280;58531;59.050;17.416;2022-12-18T04:18:50;101497.66;;;-2.51;100.00
12666;BME280;58531;59.050;17.416;2022-12-18T04:21:17;101503.34;;;-2.49;100.00
12666;BME280;58531;59.050;17.416;2022-12-18T04:23:43;101506.69;;;-2.49;100.00
12666;BME280;58531;59.050;17.416;2022-12-18T04:26:10;101508.56;;;-2.49;100.00
12666;BME280;58531;59.050;17.416;2022-12-18T04:28:37;101506.69;;;-2.49;100.00
12666;BME280;58531;59.050;17.416;2022-12-18T04:31:04;101511.63;;;-2.47;100.00
12666;BME280;58531;59.050;17.416;2022-12-18T04:33:31;101503.34;;;-2.49;100.00
12666;BME280;58531;59.050;17.416;2022-12-18T04:35:59;101501.81;;;-2.50;100.00
12666;BME280;58531;59.050;17.416;2022-12-18T04:38:25;101502.56;;;-2.50;100.00
12666;BME280;58531;59.050;17.416;2022-12-18T04:40:52;101497.22;;;-2.53;100.00
12666;BME280;58531;59.050;17.416;2022-12-18T04:43:19;101505.41;;;-2.55;100.00
12666;BME280;58531;59.050;17.416;2022-12-18T04:45:46;101494.16;;;-2.55;100.00
12666;BME280;58531;59.050;17.416;2022-12-18T04:48:12;101498.97;;;-2.57;100.00
12666;BME280;58531;59.050;17.416;2022-12-18T04:50:39;101492.22;;;-2.58;100.00
12666;BME280;58531;59.050;17.416;2022-12-18T04:53:07;101499.59;;;-2.60;100.00
12666;BME280;58531;59.050;17.416;2022-12-18T04:55:34;101490.25;;;-2.61;100.00
12666;BME280;58531;59.050;17.416;2022-12-18T04:58:01;101495.81;;;-2.63;100.00
12666;BME280;58531;59.050;17.416;2022-12-18T05:00:27;101497.66;;;-2.63;100.00
12666;BME280;58531;59.050;17.416;2022-12-18T05:02:54;101486.97;;;-2.58;100.00
12666;BME280;58531;59.050;17.416;2022-12-18T05:05:21;101485.13;;;-2.58;100.00
12666;BME280;58531;59.050;17.416;2022-12-18T05:07:48;101475.44;;;-2.57;100.00
12666;BME280;58531;59.050;17.416;2022-12-18T05:10:16;101476.97;;;-2.56;100.00
12666;BME280;58531;59.050;17.416;2022-12-18T05:12:43;101472.38;;;-2.59;100.00
12666;BME280;58531;59.050;17.416;2022-12-18T05:15:37;101469.13;;;-2.56;100.00
12666;BME280;58531;59.050;17.416;2022-12-18T05:18:03;101478.81;;;-2.57;100.00
12666;BME280;58531;59.050;17.416;2022-12-18T05:20:31;101471.63;;;-2.60;100.00
12666;BME280;58531;59.050;17.416;2022-12-18T05:22:58;101467.78;;;-2.62;100.00
12666;BME280;58531;59.050;17.416;2022-12-18T05:25:24;101470.19;;;-2.57;100.00
12666;BME280;58531;59.050;17.416;2022-12-18T05:27:51;101473.91;;;-2.58;100.00
12666;BME280;58531;59.050;17.416;2022-12-18T05:30:18;101461.03;;;-2.63;100.00
12666;BME280;58531;59.050;17.416;2022-12-18T05:32:46;101465.84;;;-2.65;100.00
12666;BME280;58531;59.050;17.416;2022-12-18T05:35:12;101456.47;;;-2.66;100.00
12666;BME280;58531;59.050;17.416;2022-12-18T05:37:39;101455.72;;;-2.67;100.00
12666;BME280;58531;59.050;17.416;2022-12-18T05:40:07;101452.31;;;-2.67;100.00
12666;BME280;58531;59.050;17.416;2022-12-18T05:42:34;101438.50;;;-2.68;100.00
12666;BME280;58531;59.050;17.416;2022-12-18T05:45:01;101441.88;;;-2.67;100.00
12666;BME280;58531;59.050;17.416;2022-12-18T05:47:27;101430.97;;;-2.69;100.00
12666;BME280;58531;59.050;17.416;2022-12-18T05:49:56;101438.38;;;-2.71;100.00
12666;BME280;58531;59.050;17.416;2022-12-18T05:52:22;101454.50;;;-2.69;100.00
12666;BME280;58531;59.050;17.416;2022-12-18T05:54:49;101457.75;;;-2.72;100.00
12666;BME280;58531;59.050;17.416;2022-12-18T05:57:16;101440.13;;;-2.63;100.00
12666;BME280;58531;59.050;17.416;2022-12-18T05:59:43;101435.69;;;-2.63;100.00
12666;BME280;58531;59.050;17.416;2022-12-18T06:02:10;101433.38;;;-2.64;100.00
12666;BME280;58531;59.050;17.416;2022-12-18T06:04:37;101430.69;;;-2.56;100.00
12666;BME280;58531;59.050;17.416;2022-12-18T06:07:05;101438.19;;;-2.54;100.00
12666;BME280;58531;59.050;17.416;2022-12-18T06:09:31;101428.38;;;-2.57;100.00
12666;BME280;58531;59.050;17.416;2022-12-18T06:11:58;101424.34;;;-2.55;100.00
12666;BME280;58531;59.050;17.416;2022-12-18T06:14:25;101421.63;;;-2.58;100.00
12666;BME280;58531;59.050;17.416;2022-12-18T06:16:52;101420.53;;;-2.57;100.00
12666;BME280;58531;59.050;17.416;2022-12-18T06:19:19;101419.44;;;-2.56;100.00
12666;BME280;58531;59.050;17.416;2022-12-18T06:21:46;101421.31;;;-2.57;100.00
12666;BME280;58531;59.050;17.416;2022-12-18T06:24:15;101414.13;;;-2.60;100.00
12666;BME280;58531;59.050;17.416;2022-12-18T06:26:42;101420.75;;;-2.62;100.00
12666;BME280;58531;59.050;17.416;2022-12-18T06:29:09;101410.63;;;-2.64;100.00
12666;BME280;58531;59.050;17.416;2022-12-18T06:31:36;101413.56;;;-2.65;100.00
12666;BME280;58531;59.050;17.416;2022-12-18T06:34:03;101399.84;;;-2.62;100.00
12666;BME280;58531;59.050;17.416;2022-12-18T06:36:30;101395.03;;;-2.60;100.00
12666;BME280;58531;59.050;17.416;2022-12-18T06:38:58;101390.91;;;-2.61;100.00
12666;BME280;58531;59.050;17.416;2022-12-18T06:41:26;101383.50;;;-2.59;100.00
12666;BME280;58531;59.050;17.416;2022-12-18T06:43:53;101391.13;;;-2.54;100.00
12666;BME280;58531;59.050;17.416;2022-12-18T06:46:20;101397.66;;;-2.48;100.00
12666;BME280;58531;59.050;17.416;2022-12-18T06:48:48;101408.75;;;-2.39;100.00
12666;BME280;58531;59.050;17.416;2022-12-18T06:51:17;101408.97;;;-2.33;100.00
12666;BME280;58531;59.050;17.416;2022-12-18T06:53:43;101409.50;;;-2.27;100.00
12666;BME280;58531;59.050;17.416;2022-12-18T06:56:10;101410.81;;;-2.21;100.00
12666;BME280;58531;59.050;17.416;2022-12-18T06:58:39;101399.03;;;-2.15;100.00
12666;BME280;58531;59.050;17.416;2022-12-18T07:01:07;101401.19;;;-2.05;100.00
12666;BME280;58531;59.050;17.416;2022-12-18T07:03:35;101411.41;;;-2.00;100.00
12666;BME280;58531;59.050;17.416;2022-12-18T07:06:02;101413.47;;;-1.94;100.00
12666;BME280;58531;59.050;17.416;2022-12-18T07:08:29;101411.28;;;-1.92;100.00
12666;BME280;58531;59.050;17.416;2022-12-18T07:10:56;101409.53;;;-1.88;100.00
12666;BME280;58531;59.050;17.416;2022-12-18T07:13:22;101406.69;;;-1.83;100.00
12666;BME280;58531;59.050;17.416;2022-12-18T07:15:50;101418.03;;;-1.79;100.00
12666;BME280;58531;59.050;17.416;2022-12-18T07:18:17;101411.25;;;-1.80;100.00
12666;BME280;58531;59.050;17.416;2022-12-18T07:20:44;101401.53;;;-1.79;100.00
12666;BME280;58531;59.050;17.416;2022-12-18T07:23:11;101420.38;;;-1.74;100.00
12666;BME280;58531;59.050;17.416;2022-12-18T07:25:37;101414.81;;;-1.72;100.00
12666;BME280;58531;59.050;17.416;2022-12-18T07:28:05;101417.00;;;-1.74;100.00
12666;BME280;58531;59.050;17.416;2022-12-18T07:30:31;101423.34;;;-1.75;100.00
12666;BME280;58531;59.050;17.416;2022-12-18T07:33:00;101431.94;;;-1.75;100.00
12666;BME280;58531;59.050;17.416;2022-12-18T07:35:26;101427.38;;;-1.78;100.00
12666;BME280;58531;59.050;17.416;2022-12-18T07:37:53;101434.56;;;-1.75;100.00
12666;BME280;58531;59.050;17.416;2022-12-18T07:40:20;101426.47;;;-1.70;100.00
12666;BME280;58531;59.050;17.416;2022-12-18T07:42:46;101434.09;;;-1.65;100.00
12666;BME280;58531;59.050;17.416;2022-12-18T07:45:13;101431.59;;;-1.61;100.00
12666;BME280;58531;59.050;17.416;2022-12-18T07:47:40;101440.19;;;-1.61;100.00
12666;BME280;58531;59.050;17.416;2022-12-18T07:50:09;101427.28;;;-1.54;100.00
12666;BME280;58531;59.050;17.416;2022-12-18T07:52:36;101428.81;;;-1.53;100.00
12666;BME280;58531;59.050;17.416;2022-12-18T07:55:03;101429.56;;;-1.52;100.00
12666;BME280;58531;59.050;17.416;2022-12-18T07:57:30;101440.59;;;-1.47;100.00
12666;BME280;58531;59.050;17.416;2022-12-18T07:59:58;101447.34;;;-1.46;100.00
12666;BME280;58531;59.050;17.416;2022-12-18T08:02:25;101447.34;;;-1.46;100.00
12666;BME280;58531;59.050;17.416;2022-12-18T08:04:52;101443.28;;;-1.43;100.00
12666;BME280;58531;59.050;17.416;2022-12-18T08:07:20;101441.53;;;-1.39;100.00
12666;BME280;58531;59.050;17.416;2022-12-18T08:09:47;101432.69;;;-1.35;100.00
12666;BME280;58531;59.050;17.416;2022-12-18T08:12:14;101431.25;;;-1.32;100.00
12666;BME280;58531;59.050;17.416;2022-12-18T08:14:40;101420.88;;;-1.29;100.00
12666;BME280;58531;59.050;17.416;2022-12-18T08:17:07;101419.84;;;-1.24;100.00
12666;BME280;58531;59.050;17.416;2022-12-18T08:19:34;101426.38;;;-1.18;100.00
12666;BME280;58531;59.050;17.416;2022-12-18T08:22:01;101423.75;;;-1.18;100.00
12666;BME280;58531;59.050;17.416;2022-12-18T08:24:29;101422.72;;;-1.14;100.00
12666;BME280;58531;59.050;17.416;2022-12-18T08:26:56;101414.56;;;-1.13;100.00
12666;BME280;58531;59.050;17.416;2022-12-18T08:29:27;101413.22;;;-1.07;100.00
12666;BME280;58531;59.050;17.416;2022-12-18T08:31:53;101409.22;;;-1.01;100.00
12666;BME280;58531;59.050;17.416;2022-12-18T08:34:20;101405.25;;;-0.95;100.00
12666;BME280;58531;59.050;17.416;2022-12-18T08:36:47;101404.66;;;-0.88;100.00
12666;BME280;58531;59.050;17.416;2022-12-18T08:39:14;101401.78;;;-0.83;100.00
12666;BME280;58531;59.050;17.416;2022-12-18T08:41:42;101400.09;;;-0.76;100.00
12666;BME280;58531;59.050;17.416;2022-12-18T08:44:28;101407.34;;;-0.69;100.00
12666;BME280;58531;59.050;17.416;2022-12-18T08:47:03;101401.78;;;-0.68;100.00
12666;BME280;58531;59.050;17.416;2022-12-18T08:49:30;101401.19;;;-0.61;100.00
12666;BME280;58531;59.050;17.416;2022-12-18T08:51:57;101406.94;;;-0.56;100.00
12666;BME280;58531;59.050;17.416;2022-12-18T08:54:24;101407.00;;;-0.52;100.00
12666;BME280;58531;59.050;17.416;2022-12-18T08:56:52;101417.25;;;-0.47;100.00
12666;BME280;58531;59.050;17.416;2022-12-18T08:59:21;101411.31;;;-0.44;100.00
12666;BME280;58531;59.050;17.416;2022-12-18T09:01:49;101409.53;;;-0.40;100.00
12666;BME280;58531;59.050;17.416;2022-12-18T09:04:16;101411.06;;;-0.39;100.00
12666;BME280;58531;59.050;17.416;2022-12-18T09:06:42;101399.88;;;-0.36;100.00
12666;BME280;58531;59.050;17.416;2022-12-18T09:09:09;101404.88;;;-0.31;100.00
12666;BME280;58531;59.050;17.416;2022-12-18T09:11:36;101404.59;;;-0.26;100.00
12666;BME280;58531;59.050;17.416;2022-12-18T09:14:04;101402.38;;;-0.24;100.00
12666;BME280;58531;59.050;17.416;2022-12-18T09:16:32;101399.41;;;-0.23;100.00
12666;BME280;58531;59.050;17.416;2022-12-18T09:19:02;101392.28;;;-0.22;100.00
12666;BME280;58531;59.050;17.416;2022-12-18T09:21:33;101399.47;;;-0.19;100.00
12666;BME280;58531;59.050;17.416;2022-12-18T09:24:00;101399.47;;;-0.19;100.00
12666;BME280;58531;59.050;17.416;2022-12-18T09:26:27;101389.41;;;-0.17;100.00
12666;BME280;58531;59.050;17.416;2022-12-18T09:28:54;101393.97;;;-0.14;100.00
12666;BME280;58531;59.050;17.416;2022-12-18T09:31:23;101391.34;;;-0.14;100.00
12666;BME280;58531;59.050;17.416;2022-12-18T09:33:50;101389.53;;;-0.10;100.00
12666;BME280;58531;59.050;17.416;2022-12-18T09:36:20;101392.94;;;-0.10;100.00
12666;BME280;58531;59.050;17.416;2022-12-18T09:38:47;101380.97;;;-0.07;100.00
12666;BME280;58531;59.050;17.416;2022-12-18T09:41:25;101369.75;;;-0.08;100.00
12666;BME280;58531;59.050;17.416;2022-12-18T09:43:59;101379.47;;;-0.08;100.00
12666;BME280;58531;59.050;17.416;2022-12-18T09:46:32;101375.06;;;-0.04;100.00
12666;BME280;58531;59.050;17.416;2022-12-18T09:49:03;101378.50;;;-0.01;100.00
12666;BME280;58531;59.050;17.416;2022-12-18T09:51:37;101379.66;;;0.02;100.00
12666;BME280;58531;59.050;17.416;2022-12-18T09:54:10;101372.56;;;0.02;100.00
12666;BME280;58531;59.050;17.416;2022-12-18T09:56:41;101367.72;;;0.04;100.00
12666;BME280;58531;59.050;17.416;2022-12-18T09:59:19;101368.56;;;0.08;100.00
12666;BME280;58531;59.050;17.416;2022-12-18T10:01:48;101365.94;;;0.08;100.00
12666;BME280;58531;59.050;17.416;2022-12-18T10:04:15;101361.09;;;0.10;100.00
12666;BME280;58531;59.050;17.416;2022-12-18T10:06:46;101360.41;;;0.13;100.00
12666;BME280;58531;59.050;17.416;2022-12-18T10:09:22;101360.41;;;0.13;100.00
12666;BME280;58531;59.050;17.416;2022-12-18T10:11:55;101356.25;;;0.12;100.00
12666;BME280;58531;59.050;17.416;2022-12-18T10:14:30;101359.31;;;0.14;100.00
12666;BME280;58531;59.050;17.416;2022-12-18T10:17:05;101348.81;;;0.14;100.00
12666;BME280;58531;59.050;17.416;2022-12-18T10:19:43;101355.22;;;0.17;100.00
12666;BME280;58531;59.050;17.416;2022-12-18T10:22:24;101351.16;;;0.19;100.00
12666;BME280;58531;59.050;17.416;2022-12-18T10:24:56;101362.41;;;0.20;100.00
12666;BME280;58531;59.050;17.416;2022-12-18T10:27:27;101357.97;;;0.24;100.00
12666;BME280;58531;59.050;17.416;2022-12-18T10:29:54;101365.13;;;0.23;100.00
12666;BME280;58531;59.050;17.416;2022-12-18T10:32:26;101361.72;;;0.23;100.00
12666;BME280;58531;59.050;17.416;2022-12-18T10:34:55;101356.13;;;0.24;100.00
12666;BME280;58531;59.050;17.416;2022-12-18T10:37:29;101368.50;;;0.24;100.00
12666;BME280;58531;59.050;17.416;2022-12-18T10:40:09;101365.53;;;0.25;100.00
12666;BME280;58531;59.050;17.416;2022-12-18T10:42:39;101370.78;;;0.25;100.00
12666;BME280;58531;59.050;17.416;2022-12-18T10:45:10;101367.44;;;0.28;100.00
12666;BME280;58531;59.050;17.416;2022-12-18T10:47:49;101369.38;;;0.31;100.00
12666;BME280;58531;59.050;17.416;2022-12-18T10:50:22;101362.31;;;0.35;100.00
12666;BME280;58531;59.050;17.416;2022-12-18T10:52:55;101365.34;;;0.37;100.00
12666;BME280;58531;59.050;17.416;2022-12-18T10:55:25;101364.66;;;0.40;100.00
12666;BME280;58531;59.050;17.416;2022-12-18T10:57:53;101364.38;;;0.45;100.00
12666;BME280;58531;59.050;17.416;2022-12-18T11:00:26;101361.00;;;0.45;100.00
12666;BME280;58531;59.050;17.416;2022-12-18T11:02:55;101371.16;;;0.46;100.00
12666;BME280;58531;59.050;17.416;2022-12-18T11:05:24;101370.81;;;0.48;100.00
12666;BME280;58531;59.050;17.416;2022-12-18T11:07:51;101359.53;;;0.47;100.00
12666;BME280;58531;59.050;17.416;2022-12-18T11:10:20;101369.34;;;0.50;100.00
12666;BME280;58531;59.050;17.416;2022-12-18T11:12:47;101367.13;;;0.52;100.00
12666;BME280;58531;59.050;17.416;2022-12-18T11:15:19;101353.63;;;0.54;100.00
12666;BME280;58531;59.050;17.416;2022-12-18T11:17:47;101351.78;;;0.54;100.00
12666;BME280;58531;59.050;17.416;2022-12-18T11:20:32;101352.59;;;0.58;100.00
12666;BME280;58531;59.050;17.416;2022-12-18T11:23:03;101351.84;;;0.58;100.00
12666;BME280;58531;59.050;17.416;2022-12-18T11:25:32;101352.25;;;0.60;100.00
12666;BME280;58531;59.050;17.416;2022-12-18T11:28:01;101344.03;;;0.61;100.00
12666;BME280;58531;59.050;17.416;2022-12-18T11:30:30;101346.69;;;0.65;100.00
12666;BME280;58531;59.050;17.416;2022-12-18T11:33:00;101343.38;;;0.68;100.00
12666;BME280;58531;59.050;17.416;2022-12-18T11:35:39;101330.59;;;0.66;100.00
12666;BME280;58531;59.050;17.416;2022-12-18T11:38:16;101327.97;;;0.66;100.00
12666;BME280;58531;59.050;17.416;2022-12-18T11:40:47;101326.16;;;0.70;100.00
12666;BME280;58531;59.050;17.416;2022-12-18T11:43:20;101337.50;;;0.74;100.00
12666;BME280;58531;59.050;17.416;2022-12-18T11:45:53;101328.50;;;0.75;100.00
12666;BME280;58531;59.050;17.416;2022-12-18T11:48:23;101323.69;;;0.81;100.00
12666;BME280;58531;59.050;17.416;2022-12-18T11:50:54;101327.06;;;0.81;100.00
12666;BME280;58531;59.050;17.416;2022-12-18T11:53:23;101324.16;;;0.86;100.00
12666;BME280;58531;59.050;17.416;2022-12-18T11:56:01;101308.78;;;0.88;100.00
12666;BME280;58531;59.050;17.416;2022-12-18T11:58:45;101315.97;;;0.91;100.00
12666;BME280;58531;59.050;17.416;2022-12-18T12:01:24;101324.25;;;0.93;100.00
12666;BME280;58531;59.050;17.416;2022-12-18T12:04:17;101331.84;;;0.98;100.00
12666;BME280;58531;59.050;17.416;2022-12-18T12:06:53;101327.00;;;1.00;100.00
12666;BME280;58531;59.050;17.416;2022-12-18T12:09:27;101330.41;;;1.01;100.00
12666;BME280;58531;59.050;17.416;2022-12-18T12:12:13;101328.56;;;1.05;100.00
12666;BME280;58531;59.050;17.416;2022-12-18T12:14:50;101336.88;;;1.07;100.00
12666;BME280;58531;59.050;17.416;2022-12-18T12:17:25;101354.63;;;1.13;100.00
12666;BME280;58531;59.050;17.416;2022-12-18T12:20:02;101355.03;;;1.15;100.00
12666;BME280;58531;59.050;17.416;2022-12-18T12:22:41;101372.47;;;1.23;100.00
12666;BME280;58531;59.050;17.416;2022-12-18T12:25:29;101368.25;;;1.18;100.00
12666;BME280;58531;59.050;17.416;2022-12-18T12:28:07;101374.97;;;1.16;100.00
12666;BME280;58531;59.050;17.416;2022-12-18T12:30:46;101374.28;;;1.19;100.00
12666;BME280;58531;59.050;17.416;2022-12-18T12:33:25;101379.16;;;1.20;100.00
12666;BME280;58531;59.050;17.416;2022-12-18T12:36:00;101365.69;;;1.22;100.00
12666;BME280;58531;59.050;17.416;2022-12-18T12:38:34;101366.88;;;1.28;100.00
12666;BME280;58531;59.050;17.416;2022-12-18T12:41:05;101356.00;;;1.29;100.00
12666;BME280;58531;59.050;17.416;2022-12-18T12:43:56;101354.13;;;1.30;100.00
12666;BME280;58531;59.050;17.416;2022-12-18T12:46:23;101355.63;;;1.31;100.00